Time;durP1;ratioP1;P1;durP2;ratioP2;P2;SDS_P1;SDS_P2;PMS_P1;PMS_P2;Temp;Humidity;BMP_temperature;BMP_pressure;BME280_temperature;BME280_humidity;BME280_pressure;Samples;Min_cycle;Max_cycle;Signal;HPM_P1;HPM_P2
2022/12/19 00:01:04;;;;;;;30.15;13.07;;;2.50;99.90;;;;;;5009990;28;20542;-86
2022/12/19 00:03:30;;;;;;;29.27;13.75;;;0.90;99.90;;;;;;5026004;28;20118;-86
2022/12/19 00:05:59;;;;;;;31.27;15.75;;;1.00;99.90;;;;;;5004253;28;20046;-85
2022/12/19 00:08:25;;;;;;;35.28;15.52;;;1.00;99.90;;;;;;5016347;28;20041;-86
2022/12/19 00:10:56;;;;;;;34.17;16.47;;;1.00;99.90;;;;;;5020356;28;20034;-86
2022/12/19 00:13:22;;;;;;;27.40;13.10;;;1.00;99.90;;;;;;5006969;28;20288;-86
2022/12/19 00:15:47;;;;;;;35.97;15.20;;;2.40;99.90;;;;;;5021434;28;20037;-87
2022/12/19 00:18:13;;;;;;;34.03;15.20;;;1.00;99.90;;;;;;5008528;28;20037;-86
2022/12/19 00:20:39;;;;;;;32.55;14.80;;;2.30;99.90;;;;;;5020811;28;20038;-86
2022/12/19 00:23:04;;;;;;;32.08;14.45;;;1.60;99.90;;;;;;4994385;28;20029;-86
2022/12/19 00:25:30;;;;;;;31.10;14.17;;;1.10;99.90;;;;;;4991270;28;20096;-86
2022/12/19 00:27:56;;;;;;;30.07;14.70;;;1.10;99.90;;;;;;5004461;28;20280;-85
2022/12/19 00:30:21;;;;;;;33.17;14.53;;;1.10;99.90;;;;;;5018326;28;20042;-86
2022/12/19 00:32:47;;;;;;;24.48;13.27;;;1.20;99.90;;;;;;5023410;28;20120;-87
2022/12/19 00:35:13;;;;;;;31.27;15.32;;;2.80;99.90;;;;;;5007279;28;20172;-85
2022/12/19 00:37:39;;;;;;;34.33;15.32;;;1.10;99.90;;;;;;5023053;28;20025;-85
2022/12/19 00:40:05;;;;;;;32.15;14.38;;;1.10;99.90;;;;;;4986315;28;20045;-86
2022/12/19 00:42:31;;;;;;;29.08;13.73;;;1.10;99.90;;;;;;5018661;28;20042;-86
2022/12/19 00:44:57;;;;;;;35.30;15.02;;;2.80;99.90;;;;;;5003540;28;20060;-86
2022/12/19 00:47:22;;;;;;;32.88;13.90;;;1.30;99.90;;;;;;4995464;28;20040;-87
2022/12/19 00:49:49;;;;;;;29.37;14.87;;;2.30;99.90;;;;;;5004793;28;20755;-87
2022/12/19 00:52:15;;;;;;;33.65;14.98;;;1.20;99.90;;;;;;5013256;28;20400;-87
2022/12/19 00:54:41;;;;;;;32.65;17.38;;;1.40;99.90;;;;;;4987670;28;20050;-87
2022/12/19 00:57:06;;;;;;;22.77;12.00;;;1.30;99.90;;;;;;5010707;28;20041;-86
2022/12/19 00:59:32;;;;;;;33.42;16.52;;;1.30;99.90;;;;;;5002100;28;20088;-86
2022/12/19 01:01:58;;;;;;;32.33;15.23;;;1.40;99.90;;;;;;5011083;28;20041;-87
2022/12/19 01:04:23;;;;;;;34.08;14.82;;;1.40;99.90;;;;;;5022966;28;20316;-87
2022/12/19 01:06:50;;;;;;;33.10;14.67;;;;;;;;;;5030314;28;20045;-86
2022/12/19 01:09:15;;;;;;;27.67;13.70;;;1.50;99.90;;;;;;5025643;28;20760;-86
2022/12/19 01:14:25;;;;;;;32.88;14.77;;;1.40;99.90;;;;;;5020512;28;20137;-86
2022/12/19 01:16:51;;;;;;;30.35;14.75;;;2.30;99.90;;;;;;5030237;28;20064;-86
2022/12/19 01:19:18;;;;;;;30.75;14.75;;;2.20;99.90;;;;;;5012576;28;20048;-86
2022/12/19 01:21:43;;;;;;;;;;;1.50;99.90;;;;;;5024045;28;20117;-86
2022/12/19 01:24:09;;;;;;;29.70;13.60;;;1.60;99.90;;;;;;5002277;28;20364;-87
2022/12/19 01:26:35;;;;;;;28.95;13.80;;;1.60;99.90;;;;;;4992285;28;20034;-86
2022/12/19 01:29:00;;;;;;;33.63;14.97;;;1.30;99.90;;;;;;4991276;28;20072;-86
2022/12/19 01:31:26;;;;;;;28.50;14.65;;;1.80;99.90;;;;;;4989723;28;20289;-87
2022/12/19 01:33:52;;;;;;;28.88;14.20;;;1.70;99.90;;;;;;5004538;28;20052;-86
2022/12/19 01:36:17;;;;;;;32.47;15.70;;;1.70;99.90;;;;;;5028579;28;20040;-86
2022/12/19 01:38:43;;;;;;;27.95;14.23;;;1.80;99.90;;;;;;4999378;28;20497;-86
2022/12/19 01:41:09;;;;;;;36.13;15.60;;;1.70;99.90;;;;;;4999772;28;20303;-87
2022/12/19 01:43:59;;;;;;;29.50;13.52;;;1.70;99.90;;;;;;5004653;28;20037;-87
2022/12/19 01:46:39;;;;;;;29.92;14.23;;;1.70;99.90;;;;;;5024751;28;20038;-86
2022/12/19 01:49:17;;;;;;;25.02;12.48;;;1.80;99.90;;;;;;5023365;28;20394;-87
2022/12/19 01:51:46;;;;;;;31.00;15.20;;;1.70;99.90;;;;;;5007403;28;20072;-87
2022/12/19 01:54:21;;;;;;;28.15;13.05;;;1.80;99.90;;;;;;5004187;28;20122;-87
2022/12/19 01:56:53;;;;;;;35.60;15.88;;;2.40;99.90;;;;;;5027519;28;20068;-87
2022/12/19 01:59:38;;;;;;;33.38;14.95;;;1.90;99.90;;;;;;5021894;28;20041;-86
2022/12/19 02:02:23;;;;;;;32.97;15.57;;;1.90;99.90;;;;;;5015272;28;20140;-87
2022/12/19 02:04:49;;;;;;;31.15;15.23;;;1.90;99.90;;;;;;5007561;28;20049;-86
2022/12/19 02:07:17;;;;;;;31.87;15.40;;;2.50;99.90;;;;;;5013842;28;20037;-86
2022/12/19 02:09:48;;;;;;;29.95;14.75;;;2.50;99.90;;;;;;5005136;28;20622;-86
2022/12/19 02:12:14;;;;;;;32.85;15.23;;;2.00;99.90;;;;;;5029080;28;20089;-86
2022/12/19 02:14:41;;;;;;;25.95;13.43;;;3.60;99.90;;;;;;4990120;28;20049;-87
2022/12/19 02:18:02;;;;;;;31.75;14.48;;;2.20;99.90;;;;;;5004680;28;20104;-87
2022/12/19 02:20:52;;;;;;;31.17;14.50;;;2.10;99.90;;;;;;4897285;29;20047;-87
2022/12/19 02:23:44;;;;;;;33.22;14.55;;;2.10;99.90;;;;;;5003921;28;20049;-87
2022/12/19 02:26:31;;;;;;;35.75;16.95;;;3.30;99.90;;;;;;5006599;28;20053;-87
2022/12/19 02:29:19;;;;;;;27.90;14.00;;;1.90;99.90;;;;;;5002812;28;20494;-86
2022/12/19 02:32:23;;;;;;;;;;;2.50;99.90;;;;;;5029526;28;20038;-87
2022/12/19 02:35:05;;;;;;;39.53;16.75;;;2.10;99.90;;;;;;4966556;28;20275;-87
2022/12/19 02:37:43;;;;;;;32.47;14.57;;;2.00;99.90;;;;;;4964107;28;20113;-86
2022/12/19 02:40:12;;;;;;;31.63;15.60;;;2.00;99.90;;;;;;4989962;28;20198;-87
2022/12/19 02:42:45;;;;;;;38.65;15.88;;;2.10;99.90;;;;;;5023896;28;20040;-86
2022/12/19 02:45:13;;;;;;;43.25;16.58;;;3.60;99.90;;;;;;5024492;28;20508;-86
2022/12/19 02:47:40;;;;;;;30.88;16.08;;;2.00;99.90;;;;;;5005984;28;20033;-86
2022/12/19 02:50:07;;;;;;;39.08;16.25;;;2.00;99.90;;;;;;5021096;28;20033;-86
2022/12/19 02:52:33;;;;;;;33.10;15.32;;;2.00;99.90;;;;;;5000589;28;20090;-86
2022/12/19 02:55:13;;;;;;;32.30;15.07;;;2.10;99.90;;;;;;5022511;28;20030;-87
2022/12/19 02:57:45;;;;;;;40.72;18.02;;;3.00;99.90;;;;;;5020271;28;20285;-86
2022/12/19 03:00:19;;;;;;;29.17;15.30;;;2.10;99.90;;;;;;5031071;28;20048;-86
2022/12/19 03:03:03;;;;;;;38.35;17.20;;;2.00;99.90;;;;;;5011347;28;20046;-86
2022/12/19 03:05:48;;;;;;;40.40;17.70;;;2.00;99.90;;;;;;5022756;28;20053;-86
2022/12/19 03:08:25;;;;;;;34.58;18.33;;;2.10;99.90;;;;;;5013898;28;20096;-87
2022/12/19 03:11:12;;;;;;;35.50;18.20;;;2.20;99.90;;;;;;5026271;28;20042;-86
2022/12/19 03:13:53;;;;;;;38.78;17.73;;;2.10;99.90;;;;;;5016655;28;20056;-86
2022/12/19 03:16:19;;;;;;;40.95;18.35;;;2.10;99.90;;;;;;5008453;28;20346;-87
2022/12/19 03:18:45;;;;;;;39.88;17.98;;;2.10;99.90;;;;;;5001438;28;20525;-86
2022/12/19 03:21:47;;;;;;;35.22;16.00;;;2.10;99.90;;;;;;4971909;28;20071;-86
2022/12/19 03:24:13;;;;;;;37.97;16.63;;;2.20;99.90;;;;;;5016302;28;20156;-87
2022/12/19 03:27:09;;;;;;;42.10;18.60;;;3.40;99.90;;;;;;5029709;28;20042;-86
2022/12/19 03:29:43;;;;;;;44.63;18.95;;;2.10;99.90;;;;;;5008712;28;20037;-87
2022/12/19 03:32:15;;;;;;;38.00;16.95;;;3.10;99.90;;;;;;5020596;28;20276;-86
2022/12/19 03:34:55;;;;;;;50.05;21.67;;;2.20;99.90;;;;;;5021514;28;20041;-86
2022/12/19 03:37:24;;;;;;;43.15;19.40;;;2.20;99.90;;;;;;5031867;28;20063;-87
2022/12/19 03:39:56;;;;;;;47.20;20.33;;;3.70;99.90;;;;;;5012407;28;20044;-86
2022/12/19 03:45:10;;;;;;;;;;;2.40;99.90;;;;;;5019509;28;20054;-86
2022/12/19 03:47:59;;;;;;;44.63;19.23;;;2.40;99.90;;;;;;5016516;28;19924;-87
2022/12/19 03:50:30;;;;;;;46.17;19.55;;;2.40;99.90;;;;;;4997771;28;20111;-86
2022/12/19 03:53:14;;;;;;;50.45;19.67;;;2.40;99.90;;;;;;5002309;28;20117;-86
2022/12/19 03:55:58;;;;;;;41.60;18.70;;;2.40;99.90;;;;;;4999781;28;20512;-86
2022/12/19 03:58:31;;;;;;;43.47;19.13;;;2.50;99.90;;;;;;5022371;28;20046;-86
2022/12/19 04:00:59;;;;;;;48.80;20.92;;;2.40;99.90;;;;;;5019064;28;20064;-86
2022/12/19 04:03:27;;;;;;;38.30;19.45;;;2.50;99.90;;;;;;4985851;28;20057;-86
2022/12/19 04:05:54;;;;;;;37.83;16.45;;;2.60;99.90;;;;;;5020689;28;20413;-86
2022/12/19 04:08:22;;;;;;;45.00;19.20;;;2.60;99.90;;;;;;5000790;28;20417;-86
2022/12/19 04:10:56;;;;;;;50.70;22.25;;;2.60;99.90;;;;;;5024165;28;20045;-86
2022/12/19 04:13:33;;;;;;;44.42;19.67;;;2.80;99.90;;;;;;5018481;28;20457;-86
2022/12/19 04:16:26;;;;;;;39.80;18.02;;;2.60;99.90;;;;;;5016178;28;20084;-86
2022/12/19 04:19:03;;;;;;;37.72;18.23;;;2.70;99.90;;;;;;5009918;28;20048;-86
2022/12/19 04:21:44;;;;;;;41.45;17.80;;;2.70;99.90;;;;;;5027141;28;20422;-86
2022/12/19 04:24:17;;;;;;;49.90;21.17;;;2.70;99.90;;;;;;5019485;28;20508;-86
2022/12/19 04:26:47;;;;;;;46.30;21.17;;;2.70;99.90;;;;;;5019872;28;20034;-86
2022/12/19 04:29:14;;;;;;;40.63;20.17;;;3.30;99.90;;;;;;5024349;28;20041;-87
2022/12/19 04:31:40;;;;;;;40.30;18.50;;;4.10;99.90;;;;;;5005703;28;20046;-86
2022/12/19 04:34:05;;;;;;;48.53;20.67;;;2.90;99.90;;;;;;4974124;28;20104;-86
2022/12/19 04:36:31;;;;;;;39.85;19.02;;;4.30;99.90;;;;;;5002894;28;20042;-86
2022/12/19 04:38:57;;;;;;;42.40;19.67;;;2.90;99.90;;;;;;5007272;28;20030;-87
2022/12/19 04:41:22;;;;;;;48.17;22.80;;;2.90;99.90;;;;;;5009287;28;20412;-86
2022/12/19 04:43:48;;;;;;;49.50;21.73;;;3.50;99.90;;;;;;5030537;28;20308;-85
2022/12/19 04:46:14;;;;;;;45.20;21.52;;;3.00;99.90;;;;;;4991357;28;20284;-86
2022/12/19 04:48:40;;;;;;;39.35;19.70;;;3.00;99.90;;;;;;5023970;28;20096;-86
2022/12/19 04:51:05;;;;;;;54.05;24.52;;;3.20;99.90;;;;;;5022272;28;20030;-86
2022/12/19 04:53:32;;;;;;;45.85;22.85;;;4.00;99.90;;;;;;5026706;28;20041;-86
2022/12/19 04:56:05;;;;;;;50.78;20.42;;;3.10;99.90;;;;;;5025329;28;20428;-86
2022/12/19 04:58:32;;;;;;;51.17;20.42;;;3.10;99.90;;;;;;5028177;28;20040;-86
2022/12/19 05:01:05;;;;;;;;;;;3.10;99.90;;;;;;5009841;28;20046;-85
2022/12/19 05:03:31;;;;;;;45.97;22.08;;;3.20;99.90;;;;;;5007468;28;19971;-85
2022/12/19 05:06:08;;;;;;;45.90;22.20;;;3.20;99.90;;;;;;5002682;28;20053;-85
2022/12/19 05:08:35;;;;;;;;;;;3.10;99.90;;;;;;5026676;28;20104;-86
2022/12/19 05:11:01;;;;;;;48.17;20.52;;;3.40;99.90;;;;;;5031131;28;19917;-86
2022/12/19 05:13:27;;;;;;;48.20;21.10;;;4.10;99.90;;;;;;5023109;28;20045;-86
2022/12/19 05:15:58;;;;;;;42.65;22.35;;;3.10;99.90;;;;;;5001058;28;20042;-86
2022/12/19 05:18:24;;;;;;;45.90;20.75;;;3.10;99.90;;;;;;5004894;28;20125;-87
2022/12/19 05:20:50;;;;;;;44.92;20.95;;;3.20;99.90;;;;;;5013983;28;20049;-85
2022/12/19 05:23:16;;;;;;;52.03;22.70;;;3.10;99.90;;;;;;4992080;28;20040;-87
2022/12/19 05:25:42;;;;;;;41.92;21.58;;;3.20;99.90;;;;;;5028438;28;20549;-86
2022/12/19 05:28:07;;;;;;;50.22;20.27;;;3.20;99.90;;;;;;5010589;28;20501;-87
2022/12/19 05:30:33;;;;;;;50.57;20.63;;;4.00;99.90;;;;;;4988873;28;20465;-84
2022/12/19 05:32:58;;;;;;;48.57;20.23;;;3.30;99.90;;;;;;5004836;28;20463;-86
2022/12/19 05:35:24;;;;;;;45.95;20.85;;;4.80;99.90;;;;;;4971216;28;20501;-88
2022/12/19 05:37:50;;;;;;;37.33;17.57;;;4.30;99.90;;;;;;4994432;28;20042;-88
2022/12/19 05:40:16;;;;;;;40.08;18.67;;;3.30;99.90;;;;;;5022115;28;20099;-87
2022/12/19 05:42:41;;;;;;;56.42;23.02;;;3.40;99.90;;;;;;5003923;28;20591;-88
2022/12/19 05:45:07;;;;;;;36.37;17.03;;;3.40;99.90;;;;;;4996926;28;20034;-87
2022/12/19 05:47:33;;;;;;;42.67;18.60;;;3.40;99.90;;;;;;5023121;28;20316;-86
2022/12/19 05:49:59;;;;;;;48.95;20.98;;;3.40;99.90;;;;;;4991052;28;20146;-87
2022/12/19 05:52:25;;;;;;;36.27;16.63;;;3.40;99.90;;;;;;5003709;28;20414;-86
2022/12/19 05:54:51;;;;;;;37.53;18.27;;;3.70;99.90;;;;;;5004695;28;20037;-81
2022/12/19 05:57:16;;;;;;;38.88;18.63;;;4.50;99.90;;;;;;5017530;28;20049;-80
2022/12/19 05:59:42;;;;;;;48.17;20.13;;;3.50;99.90;;;;;;5019912;28;20045;-79
2022/12/19 06:02:07;;;;;;;45.75;18.42;;;3.50;99.90;;;;;;5005577;28;20111;-80
2022/12/19 06:04:36;;;;;;;38.63;18.50;;;3.50;99.90;;;;;;5019008;28;20038;-79
2022/12/19 06:07:02;;;;;;;35.75;16.80;;;3.60;99.90;;;;;;5003841;28;20656;-79
2022/12/19 06:09:28;;;;;;;38.92;17.10;;;3.60;99.90;;;;;;5019315;28;20398;-79
2022/12/19 06:11:54;;;;;;;40.13;19.20;;;3.70;99.90;;;;;;5007346;28;20042;-78
2022/12/19 06:14:19;;;;;;;34.20;17.52;;;3.80;99.90;;;;;;5024421;28;20058;-79
2022/12/19 06:16:45;;;;;;;37.40;16.83;;;3.60;99.90;;;;;;5020506;28;20044;-78
2022/12/19 06:19:11;;;;;;;34.60;15.88;;;3.60;99.90;;;;;;5021119;28;20072;-79
2022/12/19 06:21:37;;;;;;;43.27;18.27;;;3.70;99.90;;;;;;5020903;28;20045;-78
2022/12/19 06:24:03;;;;;;;35.65;16.90;;;3.60;99.90;;;;;;5023045;28;20300;-78
2022/12/19 06:26:29;;;;;;;35.58;16.60;;;3.70;99.90;;;;;;5006022;28;20473;-78
2022/12/19 06:28:55;;;;;;;37.60;17.45;;;3.70;99.90;;;;;;5020901;28;20046;-78
2022/12/19 06:31:22;;;;;;;33.97;15.63;;;3.70;99.90;;;;;;5023858;28;20060;-78
2022/12/19 06:33:48;;;;;;;36.83;18.30;;;3.70;99.90;;;;;;5022762;28;20299;-79
2022/12/19 06:36:22;;;;;;;36.15;16.58;;;4.20;99.90;;;;;;5021022;28;20067;-79
2022/12/19 06:38:49;;;;;;;33.28;16.88;;;3.80;99.90;;;;;;5021974;28;20045;-79
2022/12/19 06:44:02;;;;;;;31.20;14.85;;;3.90;99.90;;;;;;5022875;28;20049;-78
2022/12/19 06:46:29;;;;;;;31.70;15.02;;;3.90;99.90;;;;;;5003770;28;20042;-78
2022/12/19 06:48:54;;;;;;;;;;;4.10;99.90;;;;;;5021882;28;20398;-79
2022/12/19 06:51:20;;;;;;;30.27;12.40;;;4.10;99.90;;;;;;4988789;28;19923;-79
2022/12/19 06:53:46;;;;;;;33.28;13.90;;;4.10;99.90;;;;;;5003802;28;20107;-79
2022/12/19 06:56:14;;;;;;;25.27;12.03;;;4.20;99.90;;;;;;5002076;28;20049;-79
2022/12/19 06:58:40;;;;;;;28.83;12.85;;;4.30;99.90;;;;;;5020620;28;20050;-79
2022/12/19 07:01:05;;;;;;;28.63;13.18;;;4.30;99.90;;;;;;5022598;28;20041;-79
2022/12/19 07:03:36;;;;;;;25.00;12.18;;;4.20;99.90;;;;;;5003759;28;20492;-79
2022/12/19 07:06:03;;;;;;;23.02;10.68;;;5.20;99.90;;;;;;5017168;28;20058;-79
2022/12/19 07:08:29;;;;;;;26.25;12.35;;;4.20;99.90;;;;;;5014605;28;20048;-79
2022/12/19 07:10:55;;;;;;;20.17;10.32;;;4.20;99.90;;;;;;5019958;28;20037;-79
2022/12/19 07:13:21;;;;;;;20.83;11.70;;;4.30;99.90;;;;;;4988017;28;20050;-79
2022/12/19 07:15:47;;;;;;;27.90;11.82;;;4.30;99.90;;;;;;5005228;28;20410;-79
2022/12/19 07:18:13;;;;;;;19.02;10.50;;;4.70;99.90;;;;;;5004830;28;20453;-80
2022/12/19 07:20:41;;;;;;;20.90;9.68;;;5.40;99.90;;;;;;5022260;28;20037;-80
2022/12/19 07:23:09;;;;;;;24.63;12.50;;;4.40;99.90;;;;;;5018769;28;20034;-80
2022/12/19 07:25:36;;;;;;;18.90;10.60;;;5.20;99.90;;;;;;5004778;28;20045;-80
2022/12/19 07:28:02;;;;;;;;;;;4.50;99.90;;;;;;5021087;28;20386;-80
2022/12/19 07:30:27;;;;;;;25.27;12.23;;;4.40;99.90;;;;;;5021968;28;19917;-79
2022/12/19 07:32:53;;;;;;;21.33;10.63;;;4.40;99.90;;;;;;4987905;28;20041;-80
2022/12/19 07:35:21;;;;;;;28.90;14.23;;;4.30;99.90;;;;;;5022859;28;20045;-81
2022/12/19 07:37:46;;;;;;;23.63;13.38;;;4.70;99.90;;;;;;5004509;28;20292;-81
2022/12/19 07:40:12;;;;;;;25.97;12.90;;;4.40;99.90;;;;;;5021443;28;20057;-81
2022/12/19 07:42:40;;;;;;;29.15;12.40;;;4.30;99.90;;;;;;5005265;28;20406;-81
2022/12/19 07:45:06;;;;;;;25.38;11.77;;;4.30;99.90;;;;;;5003943;28;20037;-81
2022/12/19 07:47:32;;;;;;;25.48;11.40;;;4.30;99.90;;;;;;5017313;28;20049;-81
2022/12/19 07:49:58;;;;;;;25.17;11.60;;;4.30;99.90;;;;;;5002852;28;20030;-81
2022/12/19 07:52:24;;;;;;;23.52;12.55;;;4.40;99.90;;;;;;5022864;28;20048;-81
2022/12/19 07:54:50;;;;;;;28.52;13.95;;;4.40;99.90;;;;;;5018176;28;20056;-81
2022/12/19 07:57:16;;;;;;;27.88;12.70;;;4.40;99.90;;;;;;5002468;28;20394;-81
2022/12/19 07:59:42;;;;;;;22.83;10.60;;;4.50;99.90;;;;;;5020062;28;20069;-81
2022/12/19 08:02:08;;;;;;;26.50;13.13;;;4.50;99.90;;;;;;5020725;28;20402;-81
2022/12/19 08:04:34;;;;;;;23.90;11.13;;;4.50;99.90;;;;;;5003369;28;20072;-81
2022/12/19 08:07:01;;;;;;;23.97;11.73;;;4.60;99.90;;;;;;5019871;28;20057;-81
2022/12/19 08:09:27;;;;;;;22.60;11.20;;;4.60;99.90;;;;;;5021867;28;20049;-81
2022/12/19 08:11:54;;;;;;;24.88;11.45;;;4.60;99.90;;;;;;5006923;28;20037;-81
2022/12/19 08:14:20;;;;;;;25.52;13.02;;;4.60;99.90;;;;;;5022316;28;20045;-81
2022/12/19 08:16:45;;;;;;;26.58;11.02;;;4.60;99.90;;;;;;5019114;28;20038;-82
2022/12/19 08:19:11;;;;;;;23.65;11.30;;;4.60;99.90;;;;;;5020686;28;20045;-81
2022/12/19 08:21:37;;;;;;;26.10;13.25;;;4.60;99.90;;;;;;5023572;28;20444;-81
2022/12/19 08:24:03;;;;;;;26.13;12.90;;;4.60;99.90;;;;;;5024966;28;20046;-81
2022/12/19 08:26:29;;;;;;;24.88;11.32;;;4.70;99.90;;;;;;5022125;28;20045;-81
2022/12/19 08:28:56;;;;;;;26.20;12.55;;;4.90;99.90;;;;;;5023622;28;20042;-81
2022/12/19 08:31:25;;;;;;;22.88;11.95;;;4.70;99.90;;;;;;4992120;28;20030;-79
2022/12/19 08:33:52;;;;;;;26.35;11.35;;;4.80;99.90;;;;;;5025008;28;20048;-80
2022/12/19 08:36:18;;;;;;;20.38;10.63;;;4.80;99.90;;;;;;5023805;28;20049;-79
2022/12/19 08:38:44;;;;;;;20.70;9.45;;;4.90;99.90;;;;;;5023556;28;20537;-80
2022/12/19 08:41:10;;;;;;;24.05;11.23;;;5.00;99.90;;;;;;5025407;28;20482;-80
2022/12/19 08:43:39;;;;;;;21.10;10.00;;;5.30;99.90;;;;;;5023940;28;20049;-81
2022/12/19 08:46:05;;;;;;;27.02;12.27;;;5.00;99.90;;;;;;5021642;28;20037;-81
2022/12/19 08:48:32;;;;;;;25.30;12.02;;;4.90;99.90;;;;;;5025429;28;20683;-81
2022/12/19 08:51:07;;;;;;;25.60;12.00;;;5.10;99.90;;;;;;5007732;28;20042;-81
2022/12/19 08:53:35;;;;;;;24.20;11.80;;;5.10;99.90;;;;;;5023496;28;20038;-81
2022/12/19 08:56:06;;;;;;;15.98;9.32;;;5.30;99.90;;;;;;5021386;28;20069;-81
2022/12/19 08:58:32;;;;;;;19.90;11.05;;;5.20;99.90;;;;;;5007849;28;20131;-81
2022/12/19 09:01:03;;;;;;;26.30;12.05;;;5.30;99.90;;;;;;5026401;28;20044;-81
2022/12/19 09:03:30;;;;;;;18.02;9.55;;;5.20;99.90;;;;;;5022598;28;20057;-81
2022/12/19 09:06:00;;;;;;;23.23;12.13;;;5.20;99.90;;;;;;5021857;28;20034;-81
2022/12/19 09:08:27;;;;;;;23.38;11.98;;;5.30;99.90;;;;;;5023918;28;20507;-82
2022/12/19 09:11:01;;;;;;;18.58;10.52;;;6.00;99.90;;;;;;5021471;28;20041;-82
2022/12/19 09:13:28;;;;;;;22.30;11.43;;;5.40;99.90;;;;;;5022546;28;20037;-82
2022/12/19 09:16:06;;;;;;;;;;;5.40;99.90;;;;;;5011145;28;20432;-82
2022/12/19 09:18:32;;;;;;;18.02;9.35;;;5.50;99.90;;;;;;5005119;28;20369;-82
2022/12/19 09:20:59;;;;;;;18.13;10.20;;;6.00;99.90;;;;;;5024237;28;20041;-82
2022/12/19 09:23:28;;;;;;;18.70;10.70;;;5.50;99.90;;;;;;5021098;28;20049;-81
2022/12/19 09:25:55;;;;;;;18.85;9.88;;;5.40;99.90;;;;;;5024973;28;20036;-81
2022/12/19 09:28:22;;;;;;;21.08;11.98;;;6.00;99.90;;;;;;5023772;28;20092;-82
2022/12/19 09:31:02;;;;;;;23.55;11.85;;;5.50;99.90;;;;;;5022263;28;20486;-81
2022/12/19 09:33:30;;;;;;;20.60;10.98;;;5.60;99.90;;;;;;5009336;28;20041;-82
2022/12/19 09:35:55;;;;;;;24.05;12.07;;;5.50;99.90;;;;;;5020217;28;20084;-82
2022/12/19 09:38:22;;;;;;;24.70;12.57;;;6.30;99.90;;;;;;5009388;28;20405;-82
2022/12/19 09:40:57;;;;;;;21.95;12.05;;;5.60;99.90;;;;;;5017769;28;20029;-82
2022/12/19 09:43:41;;;;;;;24.00;13.30;;;6.30;99.90;;;;;;5022617;28;20041;-81
2022/12/19 09:46:30;;;;;;;24.25;12.32;;;5.80;99.90;;;;;;5020690;28;20061;-81
2022/12/19 09:48:56;;;;;;;24.27;12.43;;;5.70;99.90;;;;;;5023348;28;20073;-81
2022/12/19 09:51:22;;;;;;;;;;;5.70;99.90;;;;;;5007390;28;20551;-81
2022/12/19 09:53:55;;;;;;;27.17;14.02;;;5.80;99.90;;;;;;5024113;28;20007;-81
2022/12/19 09:56:25;;;;;;;28.05;13.70;;;5.80;99.90;;;;;;5024783;28;20111;-81
2022/12/19 09:59:03;;;;;;;23.30;12.68;;;5.80;99.90;;;;;;5003339;28;20159;-81
2022/12/19 10:01:37;;;;;;;23.52;12.10;;;5.80;99.90;;;;;;5020022;28;20050;-81
2022/12/19 10:04:12;;;;;;;24.45;12.18;;;5.90;99.90;;;;;;5020803;28;20125;-81
2022/12/19 10:06:38;;;;;;;22.38;11.50;;;5.90;99.90;;;;;;5022462;28;20120;-82
2022/12/19 10:09:12;;;;;;;28.30;13.80;;;6.00;99.90;;;;;;5006569;28;20061;-81
2022/12/19 10:11:44;;;;;;;23.80;11.88;;;6.10;99.90;;;;;;5005813;28;20057;-82
2022/12/19 10:14:15;;;;;;;29.23;15.18;;;6.10;99.90;;;;;;5020483;28;20095;-82
2022/12/19 10:17:03;;;;;;;26.55;13.65;;;6.20;99.90;;;;;;5005899;28;20044;-82
2022/12/19 10:19:51;;;;;;;17.30;10.95;;;6.30;99.90;;;;;;5021374;28;20547;-82
2022/12/19 10:22:59;;;;;;;24.58;13.20;;;6.30;99.90;;;;;;5023417;28;20045;-81
2022/12/19 10:25:28;;;;;;;28.38;14.90;;;6.40;99.90;;;;;;5024544;28;20064;-81
2022/12/19 10:28:04;;;;;;;19.30;11.85;;;6.40;99.90;;;;;;5020670;28;20343;-81
2022/12/19 10:30:35;;;;;;;25.55;14.32;;;6.40;99.90;;;;;;5018733;28;20397;-81
2022/12/19 10:33:04;;;;;;;22.85;13.18;;;6.70;99.90;;;;;;5022485;28;20041;-82
2022/12/19 10:35:34;;;;;;;26.33;13.95;;;6.50;99.90;;;;;;5019691;28;20127;-81
2022/12/19 10:38:20;;;;;;;24.48;13.75;;;6.50;99.90;;;;;;5023451;28;20041;-81
2022/12/19 10:41:13;;;;;;;19.23;10.13;;;6.60;99.90;;;;;;5022216;28;20428;-81
2022/12/19 10:44:01;;;;;;;22.23;11.95;;;6.60;99.90;;;;;;5020009;28;20311;-81
2022/12/19 10:46:41;;;;;;;23.33;12.90;;;6.70;99.90;;;;;;5020090;28;20094;-81
2022/12/19 10:49:20;;;;;;;23.52;13.35;;;6.70;99.90;;;;;;5021781;28;20146;-82
2022/12/19 10:52:00;;;;;;;25.25;14.55;;;6.70;99.90;;;;;;5018521;28;20060;-81
2022/12/19 10:54:36;;;;;;;21.42;12.70;;;6.70;99.90;;;;;;5017123;28;20050;-82
2022/12/19 10:57:20;;;;;;;26.50;12.63;;;6.70;99.90;;;;;;5018147;28;20034;-81
2022/12/19 11:00:02;;;;;;;26.80;13.68;;;6.70;99.90;;;;;;5003375;28;20080;-81
2022/12/19 11:02:34;;;;;;;24.58;14.23;;;7.00;99.90;;;;;;5020489;28;20038;-81
2022/12/19 11:05:01;;;;;;;20.55;11.40;;;6.80;99.90;;;;;;5022454;28;20045;-82
2022/12/19 11:07:26;;;;;;;20.50;11.80;;;6.90;99.90;;;;;;5021123;28;20080;-82
2022/12/19 11:09:52;;;;;;;18.70;10.75;;;6.90;99.90;;;;;;4972126;28;20086;-81
2022/12/19 11:12:18;;;;;;;21.50;12.23;;;6.90;99.90;;;;;;4988964;28;20033;-81
2022/12/19 11:14:53;;;;;;;20.52;11.20;;;6.90;99.90;;;;;;5006199;28;20386;-81
2022/12/19 11:17:31;;;;;;;20.55;11.38;;;6.90;99.90;;;;;;5021002;28;20095;-81
2022/12/19 11:19:57;;;;;;;25.67;13.75;;;7.00;99.90;;;;;;5018228;28;20041;-81
2022/12/19 11:22:35;;;;;;;21.63;12.25;;;6.90;99.90;;;;;;5021259;28;20049;-82
2022/12/19 11:25:02;;;;;;;17.73;10.75;;;6.90;99.90;;;;;;5015346;28;20038;-81
2022/12/19 11:27:41;;;;;;;18.83;9.75;;;6.90;99.90;;;;;;5019613;28;20501;-81
2022/12/19 11:30:13;;;;;;;17.42;9.90;;;6.90;99.90;;;;;;5020120;28;20038;-81
2022/12/19 11:32:42;;;;;;;22.05;12.00;;;7.10;99.90;;;;;;5012035;28;20128;-81
2022/12/19 11:35:19;;;;;;;16.88;10.40;;;7.10;99.90;;;;;;5004257;28;20038;-81
2022/12/19 11:37:54;;;;;;;20.23;11.30;;;7.10;99.90;;;;;;5019735;28;20037;-81
2022/12/19 11:40:46;;;;;;;19.30;11.23;;;7.20;99.90;;;;;;5016353;28;20502;-81
2022/12/19 11:43:17;;;;;;;16.67;10.23;;;7.30;99.90;;;;;;5018556;28;20049;-81
2022/12/19 11:46:10;;;;;;;19.40;12.02;;;7.40;99.90;;;;;;5020638;28;20421;-81
2022/12/19 11:48:47;;;;;;;17.30;10.07;;;7.40;99.90;;;;;;5019332;28;20050;-81
2022/12/19 11:52:00;;;;;;;19.90;10.95;;;7.50;99.90;;;;;;5023233;28;20038;-81
2022/12/19 11:54:38;;;;;;;15.13;8.80;;;7.60;99.90;;;;;;4956600;28;20176;-81
2022/12/19 11:57:10;;;;;;;18.35;10.60;;;7.70;99.90;;;;;;5018180;28;20798;-80
2022/12/19 11:59:37;;;;;;;16.60;10.15;;;7.70;99.90;;;;;;5004403;28;20441;-81
2022/12/19 12:02:30;;;;;;;15.93;10.52;;;7.70;99.90;;;;;;5002476;28;20033;-80
2022/12/19 12:04:59;;;;;;;16.52;10.07;;;7.80;99.90;;;;;;5001363;28;20045;-80
2022/12/19 12:07:33;;;;;;;16.30;10.25;;;7.80;99.90;;;;;;5020121;28;20077;-80
2022/12/19 12:10:10;;;;;;;13.30;8.48;;;7.90;99.90;;;;;;5017082;28;20517;-80
2022/12/19 12:12:38;;;;;;;16.08;10.25;;;7.90;99.90;;;;;;5019657;28;20034;-80
2022/12/19 12:15:26;;;;;;;15.98;10.20;;;8.00;99.90;;;;;;5004684;28;20046;-80
2022/12/19 12:18:04;;;;;;;13.20;8.18;;;7.90;99.90;;;;;;5017776;28;20459;-81
2022/12/19 12:20:42;;;;;;;12.43;8.18;;;8.00;99.90;;;;;;5019564;28;20569;-80
2022/12/19 12:23:27;;;;;;;15.80;8.50;;;8.00;99.90;;;;;;4999594;28;20401;-80
2022/12/19 12:26:12;;;;;;;13.05;8.38;;;8.10;99.90;;;;;;5007300;28;20025;-81
2022/12/19 12:29:12;;;;;;;13.80;9.43;;;8.10;99.90;;;;;;5020260;28;20645;-81
2022/12/19 12:32:16;;;;;;;14.90;9.18;;;8.20;99.90;;;;;;4985635;28;20049;-81
2022/12/19 12:35:04;;;;;;;17.05;9.93;;;8.20;99.90;;;;;;4943598;28;20043;-80
2022/12/19 12:37:45;;;;;;;13.57;8.20;;;8.20;99.90;;;;;;4946716;28;20901;-80
2022/12/19 12:40:39;;;;;;;16.45;8.07;;;8.30;99.90;;;;;;4981763;28;20046;-81
2022/12/19 12:43:26;;;;;;;12.25;7.72;;;8.30;99.90;;;;;;5021816;28;20053;-81
2022/12/19 12:45:52;;;;;;;13.73;9.10;;;8.20;99.90;;;;;;5017515;28;20165;-81
2022/12/19 12:48:41;;;;;;;11.95;7.32;;;8.30;99.90;;;;;;5020627;28;20073;-81
2022/12/19 12:51:08;;;;;;;14.32;8.65;;;8.20;99.90;;;;;;5003553;28;20386;-81
2022/12/19 12:53:41;;;;;;;12.77;8.93;;;8.20;99.90;;;;;;5003809;28;20138;-80
2022/12/19 12:56:10;;;;;;;12.48;9.15;;;8.20;99.90;;;;;;5020289;28;20040;-81
2022/12/19 12:59:01;;;;;;;11.68;7.90;;;8.30;99.90;;;;;;5020127;28;20065;-80
2022/12/19 13:01:34;;;;;;;10.23;6.82;;;8.30;99.90;;;;;;5020225;28;20382;-80
2022/12/19 13:04:03;;;;;;;9.48;6.63;;;8.30;99.90;;;;;;5017602;28;20080;-80
2022/12/19 13:06:41;;;;;;;11.82;7.63;;;8.40;99.90;;;;;;5022350;28;20072;-80
2022/12/19 13:09:28;;;;;;;13.35;7.93;;;8.40;99.90;;;;;;5023822;28;20398;-80
2022/12/19 13:15:36;;;;;;;;;;;8.40;99.90;;;;;;5022720;28;20048;-80